Time;durP1;ratioP1;P1;durP2;ratioP2;P2;SDS_P1;SDS_P2;PMS_P1;PMS_P2;Temp;Humidity;BMP_temperature;BMP_pressure;BME280_temperature;BME280_humidity;BME280_pressure;Samples;Min_cycle;Max_cycle;Signal;HPM_P1;HPM_P2
2022/09/02 00:00:06;;;;;;;;;2.60;1.40;;;;;17.56;44.45;100058.81;5016171;28;8974;-83
2022/09/02 00:02:34;;;;;;;;;3.00;3.00;;;;;17.54;44.53;100052.72;5016051;28;8846;-83
2022/09/02 00:05:02;;;;;;;;;1.80;1.80;;;;;17.51;44.96;100054.88;5016074;28;8857;-83
2022/09/02 00:07:30;;;;;;;;;3.00;3.00;;;;;17.48;44.45;100052.53;5016063;28;9588;-83
2022/09/02 00:09:59;;;;;;;;;3.00;3.00;;;;;17.50;44.43;100054.06;5015742;28;9653;-83
2022/09/02 00:12:26;;;;;;;;;2.50;2.50;;;;;17.48;44.56;100047.97;5015844;28;8841;-83
2022/09/02 00:14:54;;;;;;;;;3.00;3.00;;;;;17.45;44.77;100045.63;5016276;28;8829;-83
2022/09/02 00:17:22;;;;;;;;;4.00;4.00;;;;;17.45;44.84;100045.63;5016230;28;8865;-83
2022/09/02 00:19:50;;;;;;;;;3.00;3.00;;;;;17.43;44.67;100044.94;5022095;28;8871;-83
2022/09/02 00:22:22;;;;;;;;;1.00;1.00;;;;;17.37;44.70;100037.50;5015869;28;8834;-83
2022/09/02 00:24:50;;;;;;;;;3.40;2.60;;;;;17.30;44.89;100039.13;5015662;28;8965;-83
2022/09/02 00:27:18;;;;;;;;;1.00;1.00;;;;;17.24;44.53;100038.94;5015183;28;8891;-83
2022/09/02 00:29:46;;;;;;;;;1.00;1.00;;;;;17.14;45.35;100035.50;5015397;28;8960;-83
2022/09/02 00:32:13;;;;;;;;;2.00;2.00;;;;;17.06;45.71;100025.56;5015416;28;8822;-83
2022/09/02 00:34:41;;;;;;;;;3.25;3.00;;;;;17.07;45.01;100029.94;5015153;28;8852;-83
2022/09/02 00:37:09;;;;;;;;;3.00;3.00;;;;;17.03;44.90;100027.75;5015760;28;8845;-83
2022/09/02 00:39:37;;;;;;;;;3.00;3.00;;;;;16.97;45.56;100026.53;5015957;28;8862;-83
2022/09/02 00:42:05;;;;;;;;;4.00;4.00;;;;;16.89;45.31;100022.94;5015567;28;8964;-83
2022/09/02 00:44:33;;;;;;;;;2.00;2.00;;;;;16.80;45.68;100029.28;5015270;28;8903;-83
2022/09/02 00:47:01;;;;;;;;;3.00;3.00;;;;;16.72;45.61;100023.88;5015816;28;8818;-83
2022/09/02 00:49:29;;;;;;;;;2.50;2.50;;;;;16.63;45.91;100020.28;5015444;28;8838;-83
2022/09/02 00:51:57;;;;;;;;;0.00;0.00;;;;;16.54;45.70;100023.06;5015559;28;8835;-83
2022/09/02 00:54:25;;;;;;;;;1.00;1.00;;;;;16.47;46.02;100014.78;5015041;28;8822;-83
2022/09/02 00:56:53;;;;;;;;;3.00;3.00;;;;;16.42;46.20;100019.78;5015551;28;8854;-82
2022/09/02 00:59:22;;;;;;;;;2.00;2.00;;;;;16.36;45.87;100016.84;5015513;28;8971;-83
2022/09/02 01:01:49;;;;;;;;;3.00;3.00;;;;;16.29;46.58;100015.78;5030894;28;8854;-83
2022/09/02 01:04:17;;;;;;;;;3.00;1.00;;;;;16.22;46.21;100008.53;5018418;28;8953;-83
2022/09/02 01:06:45;;;;;;;;;3.00;3.00;;;;;16.14;46.97;100019.22;5015873;28;8822;-83
2022/09/02 01:09:13;;;;;;;;;1.50;1.50;;;;;16.07;46.94;100013.59;5015156;28;8865;-83
2022/09/02 01:11:42;;;;;;;;;2.00;2.00;;;;;16.00;46.90;100019.75;5015892;28;8914;-84
2022/09/02 01:14:12;;;;;;;;;2.00;2.00;;;;;15.95;46.90;100014.00;5015456;28;8847;-83
2022/09/02 01:16:41;;;;;;;;;1.00;1.00;;;;;15.88;46.74;100011.09;5015317;28;8846;-83
2022/09/02 01:19:09;;;;;;;;;3.75;3.00;;;;;15.84;47.18;100008.88;5014950;28;8846;-83
2022/09/02 01:21:37;;;;;;;;;1.00;1.00;;;;;15.79;46.93;100011.97;5015295;28;8830;-83
2022/09/02 01:24:05;;;;;;;;;2.50;2.50;;;;;15.75;46.84;100007.94;5015433;28;9488;-83
2022/09/02 01:26:33;;;;;;;;;3.00;3.00;;;;;15.73;47.66;100011.75;5015475;28;8866;-83
2022/09/02 01:29:01;;;;;;;;;1.50;1.50;;;;;15.71;47.29;100014.59;5015042;28;8842;-83
2022/09/02 01:31:29;;;;;;;;;3.00;3.00;;;;;15.68;47.11;100006.84;5015302;28;8868;-83
2022/09/02 01:33:58;;;;;;;;;2.50;2.00;;;;;15.65;46.85;100004.50;5015411;28;8861;-83
2022/09/02 01:36:26;;;;;;;;;1.00;1.00;;;;;15.63;47.10;100000.25;5015326;28;8960;-84
2022/09/02 01:38:54;;;;;;;;;3.00;3.00;;;;;15.59;47.14;99998.88;5015036;28;8842;-84
2022/09/02 01:41:22;;;;;;;;;1.00;1.00;;;;;15.55;46.70;99998.31;5015196;28;8930;-84
2022/09/02 01:43:49;;;;;;;;;2.50;2.50;;;;;15.54;46.91;100007.38;5015451;28;8826;-83
2022/09/02 01:46:17;;;;;;;;;4.00;2.50;;;;;15.51;47.33;100004.16;5014826;28;8834;-83
2022/09/02 01:48:45;;;;;;;;;2.00;2.00;;;;;15.46;47.26;99993.03;5015001;28;8826;-83
2022/09/02 01:51:13;;;;;;;;;3.00;3.00;;;;;15.45;46.71;99996.69;5014442;28;8830;-83
2022/09/02 01:53:41;;;;;;;;;2.50;2.50;;;;;15.43;47.07;99993.34;5014092;28;8936;-83
2022/09/02 01:56:09;;;;;;;;;1.00;1.00;;;;;15.41;47.24;100004.22;5014023;28;8981;-83
2022/09/02 01:58:37;;;;;;;;;3.00;3.00;;;;;15.39;46.98;99991.97;5013916;28;8887;-83
2022/09/02 02:01:04;;;;;;;;;1.50;1.50;;;;;15.36;47.42;99994.94;5014298;28;9009;-83
2022/09/02 02:03:34;;;;;;;;;3.75;3.00;;;;;15.32;47.61;99986.34;5014037;28;8984;-83
2022/09/02 02:06:05;;;;;;;;;3.00;3.00;;;;;15.30;47.11;99992.81;5014263;28;8837;-83
2022/09/02 02:08:33;;;;;;;;;1.50;1.00;;;;;15.27;47.36;99987.75;5014670;28;8838;-83
2022/09/02 02:11:00;;;;;;;;;3.00;3.00;;;;;15.24;47.86;99988.06;5014350;28;8842;-83
2022/09/02 02:13:28;;;;;;;;;3.75;3.00;;;;;15.21;47.52;99991.03;5014467;28;8956;-83
2022/09/02 02:15:57;;;;;;;;;3.00;3.00;;;;;15.18;48.07;99988.66;5013424;28;8842;-83
2022/09/02 02:18:25;;;;;;;;;0.75;0.00;;;;;15.16;47.29;99983.44;5014921;28;8869;-83
2022/09/02 02:20:53;;;;;;;;;3.00;3.00;;;;;15.13;48.03;99982.88;5014736;28;8826;-83
2022/09/02 02:23:21;;;;;;;;;3.00;3.00;;;;;15.10;47.65;99984.03;5017756;28;9654;-83
2022/09/02 02:25:49;;;;;;;;;3.00;2.00;;;;;15.10;48.01;99981.34;5017591;28;8918;-83
2022/09/02 02:28:17;;;;;;;;;3.50;3.50;;;;;15.12;48.24;99983.88;5017553;28;8847;-83
2022/09/02 02:30:45;;;;;;;;;1.50;1.50;;;;;15.12;47.78;99989.25;5017693;28;8819;-83
2022/09/02 02:33:12;;;;;;;;;1.00;1.00;;;;;15.12;47.58;99986.56;5017470;28;8818;-83
2022/09/02 02:35:40;;;;;;;;;3.00;3.00;;;;;15.12;47.57;99981.19;5017318;28;8841;-83
2022/09/02 02:38:09;;;;;;;;;1.00;1.00;;;;;15.14;48.08;99985.44;5017535;28;8830;-83
2022/09/02 02:40:40;;;;;;;;;1.00;1.00;;;;;15.17;47.50;99981.63;5017244;28;8834;-83
2022/09/02 02:43:08;;;;;;;;;1.00;1.00;;;;;15.17;47.70;99981.63;5017586;28;8834;-83
2022/09/02 02:45:36;;;;;;;;;3.00;3.00;;;;;15.19;47.97;99977.78;5017359;28;8858;-83
2022/09/02 02:48:03;;;;;;;;;3.00;3.00;;;;;15.19;47.30;99984.97;5017724;28;8850;-83
2022/09/02 02:50:31;;;;;;;;;2.00;2.00;;;;;15.19;47.66;99979.63;5020670;28;8814;-83
2022/09/02 02:53:01;;;;;;;;;0.50;0.50;;;;;15.19;47.70;99988.53;5036664;28;8823;-84
2022/09/02 02:55:29;;;;;;;;;1.00;0.00;;;;;15.19;47.77;99976.94;5022766;28;8865;-84
2022/09/02 02:57:57;;;;;;;;;1.00;1.00;;;;;15.18;47.77;99988.66;5017042;28;8858;-83
2022/09/02 03:00:24;;;;;;;;;3.00;3.00;;;;;15.16;47.85;99980.75;5017272;28;8972;-83
2022/09/02 03:02:52;;;;;;;;;2.00;1.50;;;;;15.16;47.57;99977.25;5017084;28;8834;-83
2022/09/02 03:05:20;;;;;;;;;1.00;1.00;;;;;15.13;47.10;99978.38;5017101;28;8826;-83
2022/09/02 03:07:48;;;;;;;;;2.50;2.50;;;;;15.12;47.87;99979.38;5016865;28;8916;-83
2022/09/02 03:10:15;;;;;;;;;1.50;1.50;;;;;15.11;47.73;99974.16;5017368;28;8952;-83
2022/09/02 03:12:46;;;;;;;;;3.25;3.25;;;;;15.10;47.93;99986.72;5017566;28;9526;-83
2022/09/02 03:15:15;;;;;;;;;1.00;1.00;;;;;15.10;47.92;99980.53;5017989;28;8844;-83
2022/09/02 03:17:43;;;;;;;;;3.00;3.00;;;;;15.08;48.08;99979.81;5018302;28;8842;-83
2022/09/02 03:20:11;;;;;;;;;2.50;2.50;;;;;15.07;47.65;99975.44;5018454;28;8989;-83
2022/09/02 03:22:39;;;;;;;;;1.00;1.00;;;;;15.05;47.51;99977.44;5017832;28;8823;-83
2022/09/02 03:25:06;;;;;;;;;2.00;2.00;;;;;15.02;47.53;99972.38;4998419;28;8840;-83
2022/09/02 03:27:34;;;;;;;;;1.00;1.00;;;;;15.01;47.81;99976.88;4998195;28;8884;-84
2022/09/02 03:30:02;;;;;;;;;3.50;2.00;;;;;14.99;48.14;99969.97;4997868;28;8966;-83
2022/09/02 03:32:29;;;;;;;;;1.00;1.00;;;;;14.98;47.73;99970.97;4998040;28;8824;-84
2022/09/02 03:34:57;;;;;;;;;2.50;1.00;;;;;14.96;48.01;99967.59;4997080;28;8839;-84
2022/09/02 03:37:25;;;;;;;;;2.50;2.50;;;;;14.95;48.01;99958.69;4997033;28;8848;-84
2022/09/02 03:39:53;;;;;;;;;2.50;1.00;;;;;14.94;48.05;99966.91;4997161;28;8844;-84
2022/09/02 03:42:20;;;;;;;;;1.00;1.00;;;;;14.92;47.75;99967.06;4997297;28;8965;-84
2022/09/02 03:44:48;;;;;;;;;1.00;1.00;;;;;14.90;48.34;99963.69;4997044;28;8836;-84
2022/09/02 03:47:19;;;;;;;;;3.00;3.00;;;;;14.88;48.16;99968.34;4997125;28;8860;-84
2022/09/02 03:49:50;;;;;;;;;1.00;1.00;;;;;14.87;48.00;99968.50;4996864;28;8986;-84
2022/09/02 03:52:19;;;;;;;;;3.00;3.00;;;;;14.82;48.23;99966.25;4996360;28;8963;-84
2022/09/02 03:54:47;;;;;;;;;2.00;2.00;;;;;14.77;48.28;99965.00;4995919;28;8905;-84
2022/09/02 03:57:15;;;;;;;;;1.00;1.00;;;;;14.72;48.29;99959.25;4996069;28;8872;-83
2022/09/02 03:59:43;;;;;;;;;2.50;2.00;;;;;14.68;48.68;99968.56;4996343;28;8824;-84
2022/09/02 04:02:11;;;;;;;;;1.00;1.00;;;;;14.63;48.49;99963.66;4996207;28;8836;-84
2022/09/02 04:04:39;;;;;;;;;3.00;3.00;;;;;14.59;48.56;99958.75;4996489;28;8839;-85
2022/09/02 04:07:08;;;;;;;;;4.00;3.00;;;;;14.56;48.49;99956.38;4995895;28;8833;-84
2022/09/02 04:09:35;;;;;;;;;3.25;3.25;;;;;14.54;48.36;99961.00;4995699;28;8947;-84
2022/09/02 04:12:03;;;;;;;;;4.00;3.00;;;;;14.54;48.66;99955.63;4995725;28;8836;-84
2022/09/02 04:14:31;;;;;;;;;2.00;1.50;;;;;14.54;48.62;99961.00;4995838;28;8913;-84
2022/09/02 04:16:59;;;;;;;;;2.00;2.00;;;;;14.55;48.56;99962.69;4996264;28;8982;-85
2022/09/02 04:19:26;;;;;;;;;2.00;2.00;;;;;14.54;48.26;99961.84;4996226;28;9553;-84
2022/09/02 04:21:54;;;;;;;;;4.50;3.25;;;;;14.57;48.44;99955.38;4995733;28;8966;-84
2022/09/02 04:24:22;;;;;;;;;3.33;3.33;;;;;14.58;48.58;99959.72;4995961;28;9486;-84
2022/09/02 04:26:50;;;;;;;;;3.00;3.00;;;;;14.59;48.37;99959.59;4995921;28;8840;-84
2022/09/02 04:29:17;;;;;;;;;3.75;3.25;;;;;14.60;48.42;99955.91;4995920;28;8874;-84
2022/09/02 04:31:45;;;;;;;;;3.00;3.00;;;;;14.62;48.21;99953.06;4995797;28;9580;-84
2022/09/02 04:34:13;;;;;;;;;3.00;3.00;;;;;14.65;48.29;99952.78;4996103;28;8918;-84
2022/09/02 04:36:41;;;;;;;;;1.00;1.00;;;;;14.69;48.30;99951.50;4996126;28;8851;-84
2022/09/02 04:39:09;;;;;;;;;3.50;3.00;;;;;14.74;48.17;99946.53;4995627;28;8856;-84
2022/09/02 04:41:36;;;;;;;;;3.00;3.00;;;;;14.80;48.03;99943.28;4995961;28;8868;-84
2022/09/02 04:44:05;;;;;;;;;3.00;3.00;;;;;14.87;47.93;99947.06;4995242;28;8840;-84
2022/09/02 04:46:33;;;;;;;;;2.00;2.00;;;;;14.92;48.02;99945.59;4995713;28;8832;-84
2022/09/02 04:49:01;;;;;;;;;1.00;1.00;;;;;14.98;48.20;99950.38;4995964;28;8843;-84
2022/09/02 04:51:29;;;;;;;;;3.25;3.00;;;;;15.02;48.15;99951.75;4995721;28;8852;-84
2022/09/02 04:53:56;;;;;;;;;4.75;3.00;;;;;15.07;48.10;99951.28;4995507;28;9019;-84
2022/09/02 04:56:24;;;;;;;;;3.50;3.50;;;;;15.09;47.94;99954.69;4995191;28;8954;-84
2022/09/02 04:58:52;;;;;;;;;6.00;3.25;;;;;15.10;47.51;99951.00;4995515;28;8875;-83
2022/09/02 05:01:20;;;;;;;;;3.50;3.50;;;;;15.11;47.82;99960.75;4995327;28;8848;-83
2022/09/02 05:03:48;;;;;;;;;0.00;0.00;;;;;15.11;47.45;99945.47;4995792;28;8960;-83
2022/09/02 05:09:25;;;;;;;;;2.75;2.75;;;;;15.14;48.23;99944.34;4995273;28;8773;-83
2022/09/02 05:11:56;;;;;;;;;3.00;3.00;;;;;15.15;48.10;99946.88;4995337;28;8963;-83
2022/09/02 05:14:23;;;;;;;;;3.00;1.00;;;;;15.18;48.02;99945.75;4994978;28;8862;-83
2022/09/02 05:16:52;;;;;;;;;3.75;3.75;;;;;15.23;47.65;99952.34;4994937;28;8837;-83
2022/09/02 05:19:22;;;;;;;;;2.50;2.50;;;;;15.31;47.85;99947.09;4995240;28;8848;-83
2022/09/02 05:21:49;;;;;;;;;4.00;3.75;;;;;15.40;47.29;99942.66;4995386;28;8855;-83
2022/09/02 05:24:17;;;;;;;;;3.00;1.50;;;;;15.47;47.25;99944.56;4994944;28;8957;-83
2022/09/02 05:26:50;;;;;;;;;3.00;3.00;;;;;15.57;47.04;99941.81;4994303;28;8852;-83
2022/09/02 05:29:19;;;;;;;;;3.00;3.00;;;;;15.66;47.07;99941.75;4994794;28;8829;-83
2022/09/02 05:31:47;;;;;;;;;3.25;3.00;;;;;15.75;46.65;99948.00;4994641;28;9006;-83
2022/09/02 05:34:15;;;;;;;;;5.00;4.00;;;;;15.83;46.59;99943.56;4994229;28;8931;-83
2022/09/02 05:36:43;;;;;;;;;1.00;1.00;;;;;15.91;46.39;99945.47;4994730;28;8836;-83
2022/09/02 05:39:11;;;;;;;;;4.00;4.00;;;;;16.00;46.44;99945.38;4994550;28;8848;-83
2022/09/02 05:41:38;;;;;;;;;3.00;3.00;;;;;16.14;46.53;99952.03;4994162;28;8848;-83
2022/09/02 05:44:06;;;;;;;;;3.50;1.50;;;;;16.29;46.08;99952.16;4993964;28;8861;-83
2022/09/02 05:46:34;;;;;;;;;4.00;4.00;;;;;16.46;45.69;99945.03;4994928;28;8974;-83
2022/09/02 05:49:08;;;;;;;;;3.00;3.00;;;;;16.63;45.32;99942.28;4993363;28;8854;-83
2022/09/02 05:51:37;;;;;;;;;1.50;1.50;;;;;16.81;45.45;99936.84;4994368;28;8866;-83
2022/09/02 05:54:04;;;;;;;;;3.00;3.00;;;;;16.98;45.46;99942.13;4993411;28;8840;-83
2022/09/02 05:56:32;;;;;;;;;3.25;3.25;;;;;17.16;45.33;99942.03;4997536;28;8832;-83
2022/09/02 05:59:00;;;;;;;;;3.00;3.00;;;;;17.29;45.01;99935.16;5000037;28;8844;-83
2022/09/02 06:01:28;;;;;;;;;2.20;2.20;;;;;17.41;44.78;99939.25;4999977;28;8966;-83
2022/09/02 06:03:57;;;;;;;;;5.00;5.00;;;;;17.54;44.45;99939.59;4999755;28;8902;-83
2022/09/02 06:06:26;;;;;;;;;4.00;4.00;;;;;17.64;44.11;99940.31;5000779;28;8840;-83
2022/09/02 06:08:54;;;;;;;;;6.00;4.50;;;;;17.74;44.56;99942.81;5000316;28;8983;-83
2022/09/02 06:11:21;;;;;;;;;1.00;1.00;;;;;17.83;44.31;99934.56;5000229;28;8850;-83
2022/09/02 06:13:51;;;;;;;;;3.80;3.80;;;;;17.92;44.21;99932.75;5000440;28;8848;-83
2022/09/02 06:16:20;;;;;;;;;3.25;3.25;;;;;18.00;44.13;99927.34;5000401;28;8832;-83
2022/09/02 06:18:48;;;;;;;;;4.00;4.00;;;;;18.09;43.94;99929.88;4999729;28;8852;-83
2022/09/02 06:21:16;;;;;;;;;6.40;3.00;;;;;18.16;44.16;99927.31;5000252;28;8820;-83
2022/09/02 06:23:43;;;;;;;;;1.00;1.00;;;;;18.23;43.87;99923.75;4999646;28;8821;-83
2022/09/02 06:26:11;;;;;;;;;3.40;3.40;;;;;18.30;43.90;99927.50;4999233;28;8854;-83
2022/09/02 06:28:39;;;;;;;;;2.60;2.60;;;;;18.34;43.63;99926.16;5000473;28;9502;-83
2022/09/02 06:31:07;;;;;;;;;3.60;3.00;;;;;18.38;43.56;99932.88;5000113;28;9261;-83
2022/09/02 06:33:35;;;;;;;;;3.80;3.80;;;;;18.41;43.83;99921.75;4999949;28;8840;-83
2022/09/02 06:36:03;;;;;;;;;3.60;3.40;;;;;18.40;44.11;99922.78;4999675;28;8850;-83
2022/09/02 06:38:30;;;;;;;;;3.80;3.80;;;;;18.38;44.12;99927.47;4999854;28;8959;-83
2022/09/02 06:40:58;;;;;;;;;4.00;4.00;;;;;18.42;44.22;99933.38;4999857;28;8847;-83
2022/09/02 06:43:27;;;;;;;;;3.20;3.00;;;;;18.47;44.57;99934.56;5000232;28;8972;-83
2022/09/02 06:46:09;;;;;;;;;3.00;3.00;;;;;18.58;43.90;99938.75;5000178;28;8843;-83
2022/09/02 06:48:36;;;;;;;;;2.20;2.20;;;;;18.69;43.90;99936.53;4999601;28;8844;-83
2022/09/02 06:51:04;;;;;;;;;4.00;4.00;;;;;18.81;43.52;99929.72;4998803;28;8946;-83
2022/09/02 06:53:32;;;;;;;;;3.60;3.60;;;;;18.92;43.74;99926.66;4999417;28;8926;-83
2022/09/02 06:56:00;;;;;;;;;4.00;4.00;;;;;19.02;43.66;99929.97;4999793;28;8825;-83
2022/09/02 06:58:27;;;;;;;;;6.00;5.60;;;;;19.10;43.40;99929.94;4999209;28;8965;-83
2022/09/02 07:00:55;;;;;;;;;4.00;3.40;;;;;19.19;43.42;99926.19;4999231;28;8954;-83
2022/09/02 07:06:09;;;;;;;;;1.80;1.80;;;;;19.40;43.40;99920.16;4999737;28;8858;-83
2022/09/02 07:08:37;;;;;;;;;4.00;3.60;;;;;19.49;43.09;99919.94;4995249;28;8834;-83
2022/09/02 07:11:04;;;;;;;;;4.00;4.00;;;;;19.60;43.12;99924.94;4996121;28;8843;-83
2022/09/02 07:13:32;;;;;;;;;3.00;3.00;;;;;19.71;43.23;99924.50;4996232;28;8909;-83
2022/09/02 07:16:00;;;;;;;;;2.20;2.20;;;;;19.80;42.90;99925.28;4996464;28;8836;-83
2022/09/02 07:18:28;;;;;;;;;2.40;2.40;;;;;19.87;42.99;99924.38;4996228;28;8841;-83
2022/09/02 07:20:56;;;;;;;;;4.00;4.00;;;;;19.97;42.94;99929.53;4996074;28;8828;-83
2022/09/02 07:23:23;;;;;;;;;4.00;2.00;;;;;20.06;42.40;99928.47;4996040;28;8849;-83
2022/09/02 07:25:54;;;;;;;;;2.00;2.00;;;;;20.14;42.43;99923.84;4996326;28;8836;-83
2022/09/02 07:28:21;;;;;;;;;4.00;4.00;;;;;20.22;42.27;99923.75;4996116;28;8941;-83
2022/09/02 07:30:53;;;;;;;;;3.60;2.00;;;;;20.26;42.51;99927.75;4996035;28;9469;-83
2022/09/02 07:33:25;;;;;;;;;4.00;4.00;;;;;20.30;42.67;99929.09;4996143;28;8836;-83
2022/09/02 07:35:54;;;;;;;;;4.80;4.80;;;;;20.34;42.32;99929.56;4996301;28;8824;-83
2022/09/02 07:38:21;;;;;;;;;4.00;2.00;;;;;20.40;42.30;99916.13;4995913;28;8871;-83
2022/09/02 07:40:49;;;;;;;;;4.00;3.60;;;;;20.46;42.52;99926.22;4995867;28;8966;-83
2022/09/02 07:43:23;;;;;;;;;4.00;4.00;;;;;20.51;42.49;99929.22;4995875;28;8836;-83
2022/09/02 07:45:54;;;;;;;;;2.80;2.80;;;;;20.56;42.39;99928.66;4995955;28;8874;-83
2022/09/02 07:48:22;;;;;;;;;3.60;2.00;;;;;20.60;42.30;99927.25;4996148;28;8929;-83
2022/09/02 07:50:50;;;;;;;;;3.60;3.60;;;;;20.63;42.21;99927.72;4994768;28;8887;-83
2022/09/02 07:53:18;;;;;;;;;4.00;4.00;;;;;20.66;42.17;99921.09;4995329;28;9522;-83
2022/09/02 07:55:46;;;;;;;;;2.80;2.80;;;;;20.69;41.92;99926.97;4995727;28;8848;-83
2022/09/02 07:58:14;;;;;;;;;2.40;2.00;;;;;20.72;42.21;99920.34;4995066;28;8983;-83
2022/09/02 08:00:42;;;;;;;;;4.20;4.20;;;;;20.75;42.01;99921.63;4993960;28;8864;-83
2022/09/02 08:03:10;;;;;;;;;4.00;4.00;;;;;20.83;42.21;99918.00;4994255;28;8866;-83
2022/09/02 08:05:38;;;;;;;;;3.80;2.00;;;;;20.89;41.99;99915.41;4994929;28;8974;-83
2022/09/02 08:08:06;;;;;;;;;2.00;2.00;;;;;20.98;42.14;99913.47;4994987;28;8845;-83
2022/09/02 08:10:33;;;;;;;;;2.00;2.00;;;;;21.07;41.85;99917.72;4995543;28;8845;-83
2022/09/02 08:13:01;;;;;;;;;4.40;4.40;;;;;21.16;41.68;99917.44;4994588;28;8962;-83
2022/09/02 08:15:30;;;;;;;;;2.00;2.00;;;;;21.27;41.48;99916.94;4994915;28;8844;-84
2022/09/02 08:17:58;;;;;;;;;6.40;5.00;;;;;21.40;41.39;99922.50;4994818;28;9018;-84
2022/09/02 08:20:26;;;;;;;;;4.00;4.00;;;;;21.52;41.77;99923.72;4994663;28;8867;-84
2022/09/02 08:22:53;;;;;;;;;3.60;2.00;;;;;21.66;41.74;99913.84;4994660;28;8843;-84
2022/09/02 08:25:39;;;;;;;;;3.20;2.00;;;;;21.80;40.94;99907.53;4994678;28;8855;-84
2022/09/02 08:28:07;;;;;;;;;2.40;2.40;;;;;21.92;41.22;99916.81;4994891;28;8852;-84
2022/09/02 08:30:35;;;;;;;;;2.00;2.00;;;;;22.03;40.72;99913.59;4994975;28;8832;-84
2022/09/02 08:33:02;;;;;;;;;5.00;4.20;;;;;22.16;40.65;99917.25;4994507;28;8833;-84
2022/09/02 08:35:30;;;;;;;;;5.00;4.40;;;;;22.26;40.82;99925.91;4995134;28;8921;-84
2022/09/02 08:37:58;;;;;;;;;4.00;4.00;;;;;22.36;40.38;99914.69;4994309;28;8844;-84
2022/09/02 08:40:28;;;;;;;;;5.00;4.20;;;;;22.46;40.64;99912.50;4995154;28;8844;-84
2022/09/02 08:42:56;;;;;;;;;4.00;4.00;;;;;22.56;40.60;99916.56;4994720;28;8844;-84
2022/09/02 08:45:24;;;;;;;;;4.00;2.00;;;;;22.69;39.96;99913.91;4994948;28;9538;-84
2022/09/02 08:47:52;;;;;;;;;4.20;4.20;;;;;22.87;40.26;99907.94;4995125;28;8840;-84
2022/09/02 08:50:20;;;;;;;;;4.20;4.20;;;;;23.05;39.83;99908.22;4994618;28;8949;-84
2022/09/02 08:52:47;;;;;;;;;5.00;4.20;;;;;23.19;39.74;99901.84;4994850;28;8820;-84
2022/09/02 08:55:15;;;;;;;;;2.00;2.00;;;;;23.33;39.30;99904.41;4994413;28;8976;-84
2022/09/02 08:57:43;;;;;;;;;4.60;4.60;;;;;23.47;39.47;99900.69;4994702;28;8867;-84
2022/09/02 09:00:11;;;;;;;;;5.00;4.00;;;;;23.64;39.33;99899.25;4994873;28;8844;-84
2022/09/02 09:02:40;;;;;;;;;5.00;5.00;;;;;23.76;39.16;99894.88;4995248;28;8824;-84
2022/09/02 09:05:14;;;;;;;;;5.00;5.00;;;;;23.81;39.22;99886.94;4994068;28;9506;-84
2022/09/02 09:07:42;;;;;;;;;3.20;3.20;;;;;23.92;38.77;99888.22;4994260;28;8851;-84
2022/09/02 09:10:09;;;;;;;;;3.60;3.40;;;;;24.07;38.35;99888.88;4994178;28;8848;-84
2022/09/02 09:12:37;;;;;;;;;3.20;3.20;;;;;24.18;38.24;99890.94;4995056;28;8844;-84
2022/09/02 09:15:05;;;;;;;;;5.00;5.00;;;;;24.31;38.47;99888.22;4994670;28;8836;-84
2022/09/02 09:17:33;;;;;;;;;5.20;4.20;;;;;24.44;37.92;99889.03;4993669;28;8864;-84
2022/09/02 09:20:01;;;;;;;;;6.00;6.00;;;;;24.65;38.51;99888.00;4995536;28;8836;-84
2022/09/02 09:22:29;;;;;;;;;5.60;5.60;;;;;24.94;37.75;99882.88;4996535;28;8828;-86
2022/09/02 09:24:57;;;;;;;;;5.20;5.20;;;;;25.23;37.39;99878.78;4996259;28;8851;-84
2022/09/02 09:27:26;;;;;;;;;3.40;3.40;;;;;25.42;37.16;99869.66;4993913;28;8863;-84
2022/09/02 09:29:54;;;;;;;;;5.20;5.00;;;;;25.59;37.39;99869.75;4993345;28;8848;-84
2022/09/02 09:32:21;;;;;;;;;7.00;6.40;;;;;25.74;37.04;99861.28;4993787;28;8863;-84
2022/09/02 09:34:50;;;;;;;;;4.60;4.60;;;;;25.87;36.48;99862.00;4994194;28;8860;-84
2022/09/02 09:37:18;;;;;;;;;5.60;5.60;;;;;25.98;36.66;99858.59;4993800;28;8852;-84
2022/09/02 09:39:46;;;;;;;;;3.00;3.00;;;;;25.97;37.02;99859.63;4993206;28;8840;-84
2022/09/02 09:42:13;;;;;;;;;4.40;4.40;;;;;25.99;36.71;99857.53;4994467;28;8844;-84
2022/09/02 09:44:43;;;;;;;;;4.20;3.00;;;;;25.98;36.44;99869.53;4994400;28;8866;-84
2022/09/02 09:47:11;;;;;;;;;6.00;6.00;;;;;25.93;36.74;99860.31;4994332;28;8840;-87
2022/09/02 09:49:44;;;;;;;;;4.40;4.40;;;;;25.87;36.71;99856.53;4995348;28;9486;-85
2022/09/02 09:52:12;;;;;;;;;5.00;5.00;;;;;25.89;36.78;99851.72;4993952;28;8836;-84
2022/09/02 09:54:39;;;;;;;;;5.60;5.60;;;;;25.99;36.65;99843.88;4994368;28;8925;-84
2022/09/02 09:57:07;;;;;;;;;3.00;3.00;;;;;26.05;36.25;99848.44;4994782;28;8844;-84
2022/09/02 09:59:37;;;;;;;;;5.80;5.80;;;;;26.23;35.98;99837.56;4998723;28;8841;-85
2022/09/02 10:02:05;;;;;;;;;3.60;3.60;;;;;26.44;36.04;99828.09;5002076;28;8901;-84
2022/09/02 10:04:33;;;;;;;;;5.40;4.20;;;;;26.63;35.46;99847.03;4998990;28;8836;-84
2022/09/02 10:07:16;;;;;;;;;4.20;4.20;;;;;26.82;35.19;99840.53;4999583;28;8848;-85
2022/09/02 10:09:44;;;;;;;;;4.20;4.20;;;;;27.05;35.26;99835.19;4997641;28;8975;-85
2022/09/02 10:12:12;;;;;;;;;6.00;5.60;;;;;27.39;34.39;99837.25;4994430;28;8863;-85
2022/09/02 10:14:40;;;;;;;;;4.00;4.00;;;;;27.71;34.02;99841.38;4995476;28;9538;-84
2022/09/02 10:17:08;;;;;;;;;3.20;3.00;;;;;27.99;33.94;99830.63;4994536;28;9587;-85
2022/09/02 10:19:35;;;;;;;;;3.00;3.00;;;;;28.22;33.38;99827.91;4995326;28;8868;-85
2022/09/02 10:22:03;;;;;;;;;4.80;4.80;;;;;28.38;33.13;99840.94;4995203;28;8844;-84
2022/09/02 10:24:32;;;;;;;;;3.20;3.20;;;;;28.57;32.64;99831.50;4994388;28;8837;-84
2022/09/02 10:27:00;;;;;;;;;6.80;4.00;;;;;28.75;32.13;99822.31;4994934;28;8855;-84
2022/09/02 10:29:27;;;;;;;;;3.40;3.20;;;;;28.91;32.00;99835.25;4994137;28;8860;-87
2022/09/02 10:31:55;;;;;;;;;3.00;3.00;;;;;29.26;31.28;99819.56;4993206;28;8848;-85
2022/09/02 10:34:23;;;;;;;;;4.60;4.60;;;;;29.60;30.65;99821.31;4994468;28;9466;-84
2022/09/02 10:36:51;;;;;;;;;4.40;4.00;;;;;30.19;30.18;99818.75;4994678;28;8864;-86
2022/09/02 10:39:20;;;;;;;;;3.00;3.00;;;;;30.89;29.23;99812.38;4994567;28;8860;-85
2022/09/02 10:41:47;;;;;;;;;3.20;3.20;;;;;31.59;28.27;99809.59;4996389;28;8840;-85
2022/09/02 10:44:15;;;;;;;;;3.80;3.80;;;;;32.11;26.40;99813.41;4997896;28;8970;-84
2022/09/02 10:46:44;;;;;;;;;4.00;4.00;;;;;32.65;27.09;99807.44;4997189;28;8925;-85
2022/09/02 10:49:12;;;;;;;;;4.20;4.00;;;;;33.17;26.25;99807.41;4997127;28;8840;-85
2022/09/02 10:51:40;;;;;;;;;4.80;4.00;;;;;33.38;26.37;99809.16;4997831;28;8914;-84
2022/09/02 10:54:09;;;;;;;;;3.60;3.40;;;;;33.62;25.61;99810.31;4997469;28;8832;-85
2022/09/02 10:56:37;;;;;;;;;4.00;4.00;;;;;33.64;25.34;99795.13;4997716;28;8901;-85
2022/09/02 10:59:05;;;;;;;;;5.00;4.60;;;;;32.93;26.38;99815.31;4997190;28;9497;-85
2022/09/02 11:01:33;;;;;;;;;4.40;4.00;;;;;32.63;26.34;99811.56;4997056;28;8876;-86
2022/09/02 11:04:01;;;;;;;;;4.00;4.00;;;;;33.21;25.56;99809.34;4997081;28;8864;-86
2022/09/02 11:06:30;;;;;;;;;3.00;3.00;;;;;32.96;26.60;99808.44;4996794;28;8837;-85
2022/09/02 11:09:18;;;;;;;;;5.00;5.00;;;;;32.02;27.22;99807.53;4996705;28;8868;-84
2022/09/02 11:11:45;;;;;;;;;3.20;3.20;;;;;31.07;28.29;99811.22;4996858;28;8929;-85
2022/09/02 11:14:15;;;;;;;;;3.40;3.00;;;;;30.37;29.11;99810.25;4997330;28;8837;-85
2022/09/02 11:16:47;;;;;;;;;3.40;3.00;;;;;29.90;29.59;99811.69;4997149;28;8917;-85
2022/09/02 11:19:15;;;;;;;;;3.00;3.00;;;;;29.68;29.94;99809.91;5005254;28;8856;-85
2022/09/02 11:21:42;;;;;;;;;3.80;3.60;;;;;29.79;29.54;99804.34;4996396;28;8840;-84
2022/09/02 11:24:10;;;;;;;;;3.00;3.00;;;;;29.70;29.53;99800.34;4996185;28;8906;-84
2022/09/02 11:26:39;;;;;;;;;4.00;3.00;;;;;29.43;29.99;99793.78;4996976;28;8836;-84
2022/09/02 11:29:07;;;;;;;;;1.40;1.40;;;;;29.11;29.85;99795.38;4996429;28;8833;-84
2022/09/02 11:31:34;;;;;;;;;3.80;3.80;;;;;28.81;30.42;99789.25;4996695;28;8978;-85
2022/09/02 11:34:05;;;;;;;;;3.00;3.00;;;;;28.52;31.05;99790.28;4995669;28;8840;-86
2022/09/02 11:36:33;;;;;;;;;3.00;2.80;;;;;28.30;31.08;99797.41;4995848;28;8852;-85
2022/09/02 11:39:01;;;;;;;;;4.00;4.00;;;;;29.30;29.44;99787.78;4995805;28;8925;-84
2022/09/02 11:41:29;;;;;;;;;4.00;4.00;;;;;31.01;27.55;99776.47;4996056;28;8864;-84
2022/09/02 11:44:02;;;;;;;;;3.60;3.60;;;;;32.63;25.48;99778.47;4996729;28;8970;-85
2022/09/02 11:46:32;;;;;;;;;4.00;4.00;;;;;33.95;24.30;99769.16;4995861;28;8847;-84
2022/09/02 11:49:00;;;;;;;;;3.60;3.60;;;;;34.61;24.13;99767.94;4996735;28;8851;-86
2022/09/02 11:51:28;;;;;;;;;4.00;4.00;;;;;33.81;24.86;99776.34;4995926;28;8843;-85